Time;durP1;ratioP1;P1;durP2;ratioP2;P2;SDS_P1;SDS_P2;PMS_P1;PMS_P2;Temp;Humidity;BMP_temperature;BMP_pressure;BME280_temperature;BME280_humidity;BME280_pressure;Samples;Min_cycle;Max_cycle;Signal;HPM_P1;HPM_P2
2022/12/31 00:01:21;;;;;;;2.22;1.30;;;;;;;12.06;100.00;100224.69;4933408;29;20440;-86
2022/12/31 00:03:46;;;;;;;1.60;1.35;;;;;;;12.04;100.00;100219.53;4931638;28;20053;-87
2022/12/31 00:06:25;;;;;;;2.45;1.48;;;;;;;12.07;100.00;100219.25;4945866;28;20043;-86
2022/12/31 00:08:52;;;;;;;2.33;1.45;;;;;;;12.09;100.00;100224.41;4932728;29;20051;-88
2022/12/31 00:11:22;;;;;;;2.72;1.40;;;;;;;12.10;100.00;100226.06;4932368;29;20070;-88
2022/12/31 00:13:51;;;;;;;2.63;1.38;;;;;;;12.08;100.00;100217.47;4932238;29;20060;-88
2022/12/31 00:16:26;;;;;;;6.38;1.90;;;;;;;12.11;100.00;100225.09;4932314;29;20107;-88
2022/12/31 00:18:55;;;;;;;3.03;1.55;;;;;;;12.08;100.00;100222.75;4917332;29;20505;-87
2022/12/31 00:21:24;;;;;;;4.50;1.80;;;;;;;12.11;100.00;100222.47;4920381;29;20084;-88
2022/12/31 00:23:50;;;;;;;2.72;1.55;;;;;;;12.12;100.00;100218.84;4930366;29;20115;-87
2022/12/31 00:26:24;;;;;;;3.75;1.58;;;;;;;12.14;100.00;100230.09;4915697;29;20119;-89
2022/12/31 00:28:52;;;;;;;4.05;2.15;;;;;;;12.13;100.00;100225.78;4914624;29;20028;-90
2022/12/31 00:31:24;;;;;;;3.97;2.28;;;;;;;12.13;100.00;100209.97;4916419;29;20028;-90
2022/12/31 00:33:50;;;;;;;2.25;1.77;;;;;;;12.11;100.00;100202.19;4925548;29;20408;-85
2022/12/31 00:36:33;;;;;;;3.97;1.80;;;;;;;12.13;100.00;100204.69;4937134;29;20036;-91
2022/12/31 00:39:00;;;;;;;2.45;1.75;;;;;;;12.13;100.00;100204.69;4935867;28;20066;-90
2022/12/31 00:41:27;;;;;;;2.45;1.67;;;;;;;12.11;100.00;100196.91;4923893;29;20036;-90
2022/12/31 00:43:53;;;;;;;3.42;1.98;;;;;;;12.11;100.00;100204.00;4939426;29;20052;-90
2022/12/31 00:46:22;;;;;;;2.42;1.95;;;;;;;12.09;100.00;100206.78;4936683;29;20039;-90
2022/12/31 00:48:51;;;;;;;3.17;1.92;;;;;;;12.10;100.00;100204.97;4935930;28;20024;-88
2022/12/31 00:51:19;;;;;;;2.55;1.50;;;;;;;12.08;100.00;100199.00;4937776;28;20050;-89
2022/12/31 00:53:45;;;;;;;2.00;1.60;;;;;;;12.10;100.00;100199.69;4935824;29;20428;-89
2022/12/31 00:56:13;;;;;;;1.77;1.30;;;;;;;12.11;100.00;100204.00;4935899;28;20058;-89
2022/12/31 00:58:42;;;;;;;2.85;1.50;;;;;;;12.08;100.00;100191.09;4936798;29;20024;-89
2022/12/31 01:01:33;;;;;;;2.05;1.15;;;;;;;12.11;100.00;100196.91;4934960;28;20058;-88
2022/12/31 01:04:10;;;;;;;1.98;1.00;;;;;;;12.11;100.00;100196.09;4931728;28;20028;-88
2022/12/31 01:06:36;;;;;;;2.75;1.30;;;;;;;12.11;100.00;100190.81;4917194;29;20036;-88
2022/12/31 01:09:06;;;;;;;2.65;1.30;;;;;;;12.08;100.00;100201.63;4947160;28;20063;-89
2022/12/31 01:11:32;;;;;;;1.20;1.00;;;;;;;12.09;100.00;100179.56;4935623;29;20019;-90
2022/12/31 01:14:08;;;;;;;1.60;1.00;;;;;;;12.07;100.00;100170.97;4936789;29;20204;-91
2022/12/31 01:16:45;;;;;;;1.67;1.15;;;;;;;12.03;100.00;100175.69;4935619;29;20147;-88
2022/12/31 01:19:21;;;;;;;1.38;0.80;;;;;;;12.03;100.00;100182.78;4935126;29;20445;-90
2022/12/31 01:21:48;;;;;;;1.98;0.70;;;;;;;12.00;100.00;100175.09;4937245;28;20036;-90
2022/12/31 01:24:20;;;;;;;1.10;0.80;;;;;;;11.96;100.00;100182.47;4935352;28;20027;-91
2022/12/31 01:26:47;;;;;;;1.13;0.70;;;;;;;11.95;100.00;100190.53;4936340;29;20036;-90
2022/12/31 01:29:13;;;;;;;1.63;0.80;;;;;;;11.93;100.00;100188.84;4923752;29;20032;-90
2022/12/31 01:31:41;;;;;;;1.42;0.70;;;;;;;11.90;100.00;100189.13;4927476;28;20307;-90
2022/12/31 01:34:07;;;;;;;0.98;0.50;;;;;;;11.88;100.00;100196.34;4947022;28;20483;-89
2022/12/31 01:36:36;;;;;;;1.02;0.57;;;;;;;11.87;100.00;100199.13;4934232;29;20106;-90
2022/12/31 01:39:08;;;;;;;2.05;0.77;;;;;;;11.86;100.00;100198.28;4945579;29;20489;-89
2022/12/31 01:41:43;;;;;;;0.95;0.52;;;;;;;11.84;100.00;100197.59;4932026;29;20035;-90
2022/12/31 01:44:11;;;;;;;2.58;0.70;;;;;;;11.84;100.00;100196.75;4934326;29;20119;-90
2022/12/31 01:46:43;;;;;;;1.05;0.60;;;;;;;11.81;100.00;100200.50;4936110;29;20035;-88
2022/12/31 01:49:11;;;;;;;1.25;0.57;;;;;;;11.81;100.00;100218.97;4936303;28;20131;-88
2022/12/31 01:51:43;;;;;;;0.70;0.43;;;;;;;11.80;100.00;100234.91;4935068;29;20024;-92
2022/12/31 01:54:24;;;;;;;1.23;0.50;;;;;;;11.84;100.00;100267.94;4935047;28;20555;-90
2022/12/31 01:56:52;;;;;;;1.70;0.40;;;;;;;11.81;100.00;100269.03;4937303;29;20024;-90
2022/12/31 01:59:25;;;;;;;0.60;0.50;;;;;;;11.80;100.00;100243.66;4935230;28;20035;-89
2022/12/31 02:02:00;;;;;;;1.90;0.55;;;;;;;11.79;100.00;100205.09;4921259;29;20032;-90
2022/12/31 02:04:32;;;;;;;6.25;0.73;;;;;;;11.76;100.00;100207.97;4930559;29;20776;-89
2022/12/31 02:07:05;;;;;;;0.75;0.75;;;;;;;11.76;100.00;100223.78;4925417;28;20028;-90
2022/12/31 02:09:32;;;;;;;;;;;;;;;11.84;100.00;100231.88;4932989;29;20043;-92
2022/12/31 02:12:01;;;;;;;2.53;0.82;;;;;;;11.78;100.00;100218.41;4935943;28;19941;-91
2022/12/31 02:14:34;;;;;;;1.58;0.70;;;;;;;11.76;100.00;100223.78;4935117;28;20027;-91
2022/12/31 02:17:23;;;;;;;1.38;0.80;;;;;;;11.77;100.00;100233.34;4933988;29;20075;-91
2022/12/31 02:20:08;;;;;;;1.00;0.90;;;;;;;11.80;100.00;100243.66;4952234;29;20279;-91
2022/12/31 02:22:57;;;;;;;1.00;1.00;;;;;;;11.79;100.00;100251.69;4951234;28;20485;-91
2022/12/31 02:25:28;;;;;;;1.75;1.00;;;;;;;11.80;100.00;100261.28;4934781;29;20396;-89
2022/12/31 02:28:24;;;;;;;1.85;1.10;;;;;;;11.81;100.00;100261.13;4933169;29;20039;-89
2022/12/31 02:31:13;;;;;;;2.05;1.30;;;;;;;11.81;100.00;100266.41;4933762;29;20036;-91
2022/12/31 02:37:30;;;;;;;1.52;1.42;;;;;;;11.77;100.00;100272.88;4912373;29;20054;-88
2022/12/31 02:40:13;;;;;;;2.75;1.67;;;;;;;11.80;100.00;100282.34;4911674;29;20032;-91
2022/12/31 02:42:45;;;;;;;3.00;2.00;;;;;;;11.79;100.00;100286.78;4910141;29;20051;-88
2022/12/31 02:45:20;;;;;;;2.42;2.20;;;;;;;11.80;100.00;100283.19;4930432;29;20079;-90
2022/12/31 02:48:27;;;;;;;2.72;2.47;;;;;;;11.82;100.00;100291.78;4914555;29;20032;-90
2022/12/31 02:51:08;;;;;;;3.10;2.90;;;;;;;11.79;100.00;100273.63;4923622;29;20126;-91
2022/12/31 02:54:10;;;;;;;2.95;2.70;;;;;;;11.78;100.00;100269.31;4922358;29;20027;-90
2022/12/31 02:57:16;;;;;;;3.00;2.78;;;;;;;11.77;100.00;100257.06;4932568;28;20564;-87
2022/12/31 03:02:41;;;;;;;4.43;2.70;;;;;;;11.74;100.00;100267.88;4924163;29;20069;-91
2022/12/31 03:05:10;;;;;;;3.33;2.00;;;;;;;11.71;100.00;100254.97;4934410;29;20028;-91
2022/12/31 03:07:40;;;;;;;2.40;2.20;;;;;;;11.69;100.00;100259.56;4929993;28;20039;-92
2022/12/31 03:10:09;;;;;;;1.85;1.75;;;;;;;11.67;100.00;100261.50;4929328;29;20055;-90
2022/12/31 03:12:45;;;;;;;1.75;1.65;;;;;;;11.66;100.00;100259.00;4934825;29;20027;-90
2022/12/31 03:15:43;;;;;;;2.00;1.90;;;;;;;11.65;100.00;100242.34;4928275;29;20523;-89
2022/12/31 03:26:56;;;;;;;2.72;1.48;;;;;;;11.64;100.00;100227.50;4952544;28;20078;-89
2022/12/31 03:29:27;;;;;;;1.40;1.30;;;;;;;11.65;100.00;100226.53;4950960;28;20066;-88
2022/12/31 03:31:56;;;;;;;1.20;1.10;;;;;;;11.63;100.00;100227.66;4948466;28;20122;-87
2022/12/31 03:34:24;;;;;;;1.27;1.17;;;;;;;11.63;100.00;100228.47;4933838;29;20078;-86
2022/12/31 03:36:53;;;;;;;1.10;1.00;;;;;;;11.59;100.00;100221.78;4952293;29;20011;-88
2022/12/31 03:39:24;;;;;;;1.35;1.25;;;;;;;11.60;100.00;100213.75;4944914;29;20357;-88
2022/12/31 03:41:51;;;;;;;1.45;1.35;;;;;;;11.62;100.00;100205.72;4934389;29;20024;-90
2022/12/31 03:44:16;;;;;;;1.40;1.25;;;;;;;11.60;100.00;100208.47;4932124;29;20492;-91
2022/12/31 03:46:42;;;;;;;3.78;1.50;;;;;;;11.59;100.00;100212.06;4932535;29;20039;-90
2022/12/31 03:49:08;;;;;;;1.30;1.20;;;;;;;11.57;100.00;100203.47;4928488;29;20032;-90
2022/12/31 03:51:36;;;;;;;1.77;1.40;;;;;;;11.57;100.00;100200.84;4927434;29;20172;-90
2022/12/31 03:54:08;;;;;;;1.33;1.23;;;;;;;11.59;100.00;100200.69;4931659;29;20044;-90
2022/12/31 03:56:33;;;;;;;1.30;1.20;;;;;;;11.57;100.00;100200.00;4934444;29;20063;-90
2022/12/31 03:58:59;;;;;;;1.02;1.00;;;;;;;11.58;100.00;100191.13;4934535;29;20523;-90
2022/12/31 04:01:25;;;;;;;1.10;1.10;;;;;;;11.58;100.00;100191.97;4933829;28;20099;-89
2022/12/31 04:03:50;;;;;;;3.53;1.20;;;;;;;11.56;100.00;100190.44;4926615;29;20110;-91
2022/12/31 04:06:15;;;;;;;2.13;1.10;;;;;;;11.56;100.00;100196.53;4935964;29;20083;-90
2022/12/31 04:08:41;;;;;;;0.98;0.98;;;;;;;11.59;100.00;100193.63;4937193;29;20034;-90
2022/12/31 04:11:06;;;;;;;0.73;0.73;;;;;;;11.59;100.00;100192.81;4938141;29;20106;-90
2022/12/31 04:13:31;;;;;;;0.82;0.70;;;;;;;11.64;100.00;100193.25;4947371;29;20016;-90
2022/12/31 04:16:40;;;;;;;1.48;0.73;;;;;;;11.68;100.00;100183.28;4938047;29;20038;-90
2022/12/31 04:19:06;;;;;;;3.88;0.80;;;;;;;11.71;100.00;100189.09;4937447;29;20042;-90
2022/12/31 04:21:31;;;;;;;2.25;0.75;;;;;;;11.77;100.00;100182.44;4937592;29;20020;-90
2022/12/31 04:23:56;;;;;;;2.17;0.70;;;;;;;11.86;100.00;100181.63;4938953;29;20034;-88
2022/12/31 04:26:22;;;;;;;2.70;0.80;;;;;;;11.94;100.00;100176.50;4939737;29;20055;-90
2022/12/31 04:28:47;;;;;;;2.35;0.70;;;;;;;12.04;100.00;100171.25;4939571;29;20040;-90
2022/12/31 04:31:13;;;;;;;3.25;1.05;;;;;;;12.10;100.00;100168.88;4938350;29;20032;-90
2022/12/31 04:33:38;;;;;;;3.47;0.98;;;;;;;12.17;100.00;100161.25;4937411;29;20032;-92
2022/12/31 04:36:06;;;;;;;5.18;1.05;;;;;;;12.21;100.00;100155.53;4935557;29;20035;-89
2022/12/31 04:38:33;;;;;;;9.93;1.33;;;;;;;12.30;100.00;100132.75;4938118;29;20068;-93
2022/12/31 04:41:17;;;;;;;6.20;1.30;;;;;;;12.41;100.00;100152.88;4941239;29;20078;-89
2022/12/31 04:43:45;;;;;;;4.00;1.27;;;;;;;12.52;100.00;100176.47;4961809;28;20119;-89
2022/12/31 04:46:11;;;;;;;5.30;1.13;;;;;;;12.53;100.00;100184.25;4946222;29;20573;-89
2022/12/31 04:48:37;;;;;;;4.72;0.90;;;;;;;12.65;100.00;100184.06;4944992;29;20034;-92
2022/12/31 04:51:05;;;;;;;5.05;0.82;;;;;;;12.69;100.00;100173.06;4948556;29;20024;-92
2022/12/31 04:53:31;;;;;;;3.63;1.27;;;;;;;12.79;100.00;100189.72;4944526;29;20027;-90
2022/12/31 04:55:57;;;;;;;4.65;1.10;;;;;;;12.85;100.00;100196.25;4944834;29;20028;-91
2022/12/31 04:58:22;;;;;;;4.00;0.93;;;;;;;12.91;100.00;100210.69;4944401;29;20330;-90
2022/12/31 05:00:50;;;;;;;3.58;0.82;;;;;;;13.02;100.00;100200.75;4943852;29;20020;-89
2022/12/31 05:03:22;;;;;;;7.10;1.30;;;;;;;13.10;100.00;100214.06;4947036;29;20365;-88
2022/12/31 05:05:48;;;;;;;4.30;0.82;;;;;;;13.16;100.00;100200.28;4948490;28;20031;-89
2022/12/31 05:08:15;;;;;;;3.90;1.13;;;;;;;13.20;100.00;100206.13;4948380;28;20028;-90
2022/12/31 05:10:45;;;;;;;3.08;0.70;;;;;;;13.21;100.00;100207.81;4947037;29;20035;-90
2022/12/31 05:13:11;;;;;;;3.25;0.85;;;;;;;13.25;100.00;100203.91;4939547;29;20024;-90
2022/12/31 05:15:36;;;;;;;2.50;0.70;;;;;;;13.27;100.00;100215.16;4936280;29;20066;-89
2022/12/31 05:18:05;;;;;;;3.60;0.90;;;;;;;13.31;100.00;100218.34;4935300;29;20032;-90
2022/12/31 05:20:30;;;;;;;2.50;0.70;;;;;;;13.39;100.00;100210.50;4934858;29;20023;-87
2022/12/31 05:22:55;;;;;;;2.42;0.63;;;;;;;13.41;100.00;100217.31;4933036;29;20086;-88
2022/12/31 05:25:21;;;;;;;4.55;0.70;;;;;;;13.45;100.00;100225.75;4935411;29;20569;-90
2022/12/31 05:27:47;;;;;;;4.22;0.85;;;;;;;13.47;100.00;100223.81;4935074;29;20070;-89
2022/12/31 05:30:13;;;;;;;3.85;0.70;;;;;;;13.52;100.00;100237.41;4934069;28;20058;-91
2022/12/31 05:32:38;;;;;;;3.28;0.73;;;;;;;13.54;100.00;100243.38;4935647;28;20047;-89
2022/12/31 05:35:04;;;;;;;2.95;0.80;;;;;;;13.52;100.00;100242.69;4934100;29;20151;-89
2022/12/31 05:37:30;;;;;;;2.78;0.80;;;;;;;13.52;100.00;100240.06;4933645;29;20492;-90
2022/12/31 05:39:56;;;;;;;1.83;0.57;;;;;;;13.48;100.00;100236.88;4934169;29;20035;-90
2022/12/31 05:42:22;;;;;;;3.05;0.57;;;;;;;13.49;100.00;100229.78;4933413;29;20349;-91
2022/12/31 05:44:48;;;;;;;3.25;0.70;;;;;;;13.51;100.00;100242.84;4933502;29;20416;-91
2022/12/31 05:47:14;;;;;;;1.98;0.65;;;;;;;13.53;100.00;100252.28;4935010;29;20032;-91
2022/12/31 05:49:40;;;;;;;2.75;0.80;;;;;;;13.58;100.00;100226.25;4934606;29;20035;-91
2022/12/31 05:52:06;;;;;;;2.97;0.52;;;;;;;13.61;100.00;100231.25;4932315;29;20527;-90
2022/12/31 05:54:32;;;;;;;1.55;0.70;;;;;;;13.60;100.00;100240.13;4933518;29;20058;-90
2022/12/31 05:56:57;;;;;;;2.10;0.65;;;;;;;13.65;100.00;100237.91;4923012;28;20056;-91
2022/12/31 05:59:23;;;;;;;2.25;0.50;;;;;;;13.72;100.00;100224.94;4916113;29;20043;-91
2022/12/31 06:01:49;;;;;;;2.75;0.70;;;;;;;13.75;100.00;100214.88;4930341;29;20106;-92
2022/12/31 06:04:14;;;;;;;2.03;0.60;;;;;;;13.79;100.00;100245.31;4931405;29;20045;-93
2022/12/31 06:06:40;;;;;;;5.65;1.00;;;;;;;13.80;100.00;100233.78;4934944;29;20035;-92
2022/12/31 06:09:05;;;;;;;2.92;0.60;;;;;;;13.86;100.00;100244.72;4935038;29;20043;-93
2022/12/31 06:11:31;;;;;;;1.52;0.52;;;;;;;13.86;100.00;100234.16;4933668;28;20047;-93
2022/12/31 06:13:57;;;;;;;2.47;0.55;;;;;;;14.02;100.00;100255.50;4944333;29;20039;-92
2022/12/31 06:16:23;;;;;;;1.73;0.60;;;;;;;14.06;100.00;100256.84;4935039;29;20050;-92
2022/12/31 06:19:08;;;;;;;1.55;0.52;;;;;;;14.15;100.00;100271.81;4937914;28;20020;-91
2022/12/31 06:21:37;;;;;;;3.58;0.70;;;;;;;14.16;100.00;100270.84;4936221;29;20044;-92
2022/12/31 06:24:03;;;;;;;2.40;0.68;;;;;;;14.24;100.00;100264.78;4935917;29;20035;-94
2022/12/31 06:26:29;;;;;;;2.97;0.75;;;;;;;14.22;100.00;100267.59;4936484;29;20057;-93
2022/12/31 06:28:55;;;;;;;2.17;0.60;;;;;;;14.28;100.00;100261.69;4934701;29;20104;-90
2022/12/31 06:31:20;;;;;;;2.30;0.50;;;;;;;14.31;100.00;100279.91;4934416;29;20433;-92
2022/12/31 06:33:46;;;;;;;1.95;0.50;;;;;;;14.34;100.00;100281.41;4923181;28;20028;-93
2022/12/31 06:36:13;;;;;;;2.17;0.55;;;;;;;14.41;100.00;100279.84;4917622;29;20015;-93
2022/12/31 06:38:41;;;;;;;2.97;0.75;;;;;;;14.46;100.00;100274.97;4932456;29;20046;-93
2022/12/31 06:41:15;;;;;;;2.28;0.60;;;;;;;14.52;100.00;100281.44;4940756;29;20087;-93
2022/12/31 06:43:41;;;;;;;4.15;0.70;;;;;;;14.55;100.00;100273.22;4943244;29;20070;-91
2022/12/31 06:46:25;;;;;;;4.68;0.63;;;;;;;14.63;100.00;100274.09;4934550;28;20451;-92
2022/12/31 06:48:54;;;;;;;2.55;0.75;;;;;;;14.63;100.00;100289.16;4937312;29;20032;-93
2022/12/31 06:51:23;;;;;;;4.65;0.80;;;;;;;14.57;100.00;100276.53;4938330;29;20474;-93
2022/12/31 06:53:51;;;;;;;4.03;0.60;;;;;;;14.65;100.00;100292.47;4935089;29;20020;-92
2022/12/31 06:56:27;;;;;;;3.90;0.93;;;;;;;14.69;100.00;100285.88;4924943;29;20079;-92
2022/12/31 06:58:52;;;;;;;3.50;0.60;;;;;;;14.75;100.00;100295.84;4923244;29;20505;-92
2022/12/31 07:02:05;;;;;;;4.45;0.90;;;;;;;14.77;100.00;100277.16;4935848;29;20062;-93
2022/12/31 07:04:58;;;;;;;5.50;1.23;;;;;;;14.78;100.00;100284.94;4962761;28;20152;-93
2022/12/31 07:07:44;;;;;;;2.10;0.85;;;;;;;14.81;100.00;100279.38;4962123;29;20041;-94
2022/12/31 07:10:32;;;;;;;3.47;0.70;;;;;;;14.82;100.00;100291.63;5011282;23;20032;-90
2022/12/31 07:13:33;;;;;;;2.20;0.73;;;;;;;14.81;100.00;100283.81;4990034;28;20035;-92
2022/12/31 07:16:08;;;;;;;3.92;1.05;;;;;;;14.84;100.00;100289.66;4972005;28;20128;-93
2022/12/31 07:19:28;;;;;;;4.38;0.95;;;;;;;14.84;100.00;100294.97;4987931;28;20031;-92
2022/12/31 07:21:56;;;;;;;3.05;0.80;;;;;;;14.84;100.00;100287.00;4920604;28;20095;-91
2022/12/31 07:24:22;;;;;;;3.25;0.80;;;;;;;14.81;100.00;100284.69;4973483;28;20034;-93
2022/12/31 07:27:25;;;;;;;3.15;0.68;;;;;;;14.85;100.00;100299.28;4980692;28;20031;-92
2022/12/31 07:30:12;;;;;;;3.13;0.90;;;;;;;14.82;100.00;100296.94;4979049;28;20027;-93
2022/12/31 07:33:15;;;;;;;3.42;0.75;;;;;;;14.80;100.00;100293.56;4970574;28;20074;-93
2022/12/31 07:36:01;;;;;;;3.95;1.23;;;;;;;14.79;100.00;100306.97;4953225;28;20027;-91
2022/12/31 07:38:51;;;;;;;2.28;0.80;;;;;;;14.81;100.00;100292.63;4961268;28;20042;-91
2022/12/31 07:41:48;;;;;;;4.57;0.90;;;;;;;14.78;100.00;100311.44;4977205;28;20039;-90
2022/12/31 07:44:40;;;;;;;7.15;0.82;;;;;;;14.78;100.00;100300.00;4972923;28;20061;-92
2022/12/31 07:47:23;;;;;;;5.35;1.10;;;;;;;14.72;100.00;100312.06;4955018;28;20045;-94
2022/12/31 07:49:55;;;;;;;6.65;0.90;;;;;;;14.65;100.00;100295.13;4989376;28;20026;-94
2022/12/31 07:52:24;;;;;;;4.32;1.08;;;;;;;14.60;100.00;100308.00;4966268;28;20055;-93
2022/12/31 07:54:50;;;;;;;3.40;0.88;;;;;;;14.51;100.00;100285.09;4967116;28;20031;-93
2022/12/31 07:57:30;;;;;;;5.47;1.30;;;;;;;14.49;100.00;100290.53;4970553;28;20027;-94
2022/12/31 08:03:40;;;;;;;3.97;1.00;;;;;;;14.40;100.00;100297.50;4970434;28;20050;-93
2022/12/31 08:06:33;;;;;;;3.60;1.05;;;;;;;14.40;100.00;100328.44;4971331;28;20061;-91
2022/12/31 08:09:05;;;;;;;4.15;1.25;;;;;;;14.37;100.00;100329.56;4951607;28;20042;-91
2022/12/31 08:11:33;;;;;;;2.97;0.82;;;;;;;14.34;100.00;100345.75;4955262;28;20055;-92
2022/12/31 08:14:07;;;;;;;3.75;1.10;;;;;;;14.30;100.00;100349.69;4953537;28;20034;-92
2022/12/31 08:16:33;;;;;;;3.45;1.00;;;;;;;14.25;100.00;100357.25;4951502;28;20114;-93
2022/12/31 08:19:01;;;;;;;3.47;0.90;;;;;;;14.20;100.00;100374.56;4950779;28;20151;-93
2022/12/31 08:21:33;;;;;;;2.55;0.77;;;;;;;14.19;100.00;100357.84;4954822;28;20479;-94
2022/12/31 08:24:23;;;;;;;3.55;1.08;;;;;;;14.17;100.00;100390.72;4971849;28;20026;-93
2022/12/31 08:26:54;;;;;;;2.90;0.90;;;;;;;14.19;100.00;100394.91;4971668;28;20054;-93
2022/12/31 08:29:40;;;;;;;3.35;0.80;;;;;;;14.23;100.00;100396.25;4953054;28;20046;-91
2022/12/31 08:32:34;;;;;;;4.18;0.93;;;;;;;14.24;100.00;100407.69;4952367;28;20043;-91
2022/12/31 08:35:14;;;;;;;2.92;0.80;;;;;;;14.28;100.00;100407.22;4953199;28;20027;-92
2022/12/31 08:37:50;;;;;;;2.92;0.95;;;;;;;14.30;100.00;100413.22;4966546;28;20042;-88
2022/12/31 08:40:33;;;;;;;1.48;0.70;;;;;;;14.33;100.00;100422.66;4960251;28;20499;-89
2022/12/31 08:43:36;;;;;;;3.25;0.80;;;;;;;14.34;100.00;100435.75;4970197;28;20048;-88
2022/12/31 08:46:06;;;;;;;4.45;1.00;;;;;;;14.31;100.00;100436.03;4970096;28;20027;-89
2022/12/31 08:48:38;;;;;;;5.50;1.20;;;;;;;14.28;100.00;100452.22;4986393;28;20019;-87
2022/12/31 08:51:25;;;;;;;3.00;1.00;;;;;;;14.30;100.00;100446.78;4974564;28;20031;-93
2022/12/31 08:53:51;;;;;;;5.32;1.17;;;;;;;14.29;100.00;100448.59;4965422;28;20130;-86
2022/12/31 08:56:24;;;;;;;2.88;0.93;;;;;;;14.32;100.00;100464.19;4971066;28;20106;-95
2022/12/31 08:59:01;;;;;;;3.08;1.02;;;;;;;14.31;100.00;100462.50;4961933;28;20039;-90
2022/12/31 09:01:36;;;;;;;3.47;0.93;;;;;;;14.33;100.00;100475.59;4960977;28;20090;-93
2022/12/31 09:04:04;;;;;;;5.13;1.00;;;;;;;14.35;100.00;100485.06;4969812;28;20070;-89
2022/12/31 09:06:34;;;;;;;3.10;0.77;;;;;;;14.31;100.00;100478.38;4965647;28;20035;-92
2022/12/31 09:09:09;;;;;;;4.72;1.15;;;;;;;14.32;100.00;100495.94;4966176;28;20026;-93
2022/12/31 09:12:03;;;;;;;4.43;1.10;;;;;;;14.32;100.00;100495.09;4970531;28;20503;-93
2022/12/31 09:14:37;;;;;;;2.35;0.80;;;;;;;14.27;100.00;100498.19;4954120;28;20027;-91
2022/12/31 09:17:23;;;;;;;4.47;1.10;;;;;;;14.24;100.00;100522.31;4960062;28;20114;-94
2022/12/31 09:19:51;;;;;;;6.10;1.13;;;;;;;14.15;100.00;100531.09;4980948;28;20023;-93
2022/12/31 09:22:17;;;;;;;5.72;1.40;;;;;;;14.09;100.00;100523.75;4963079;28;20113;-91
2022/12/31 09:24:43;;;;;;;4.63;1.10;;;;;;;14.00;100.00;100532.53;5005373;28;20106;-90
2022/12/31 09:27:21;;;;;;;5.10;0.90;;;;;;;13.95;100.00;100529.47;4967582;28;20057;-90
2022/12/31 09:29:54;;;;;;;3.67;1.15;;;;;;;13.93;100.00;100532.28;4960009;28;20062;-90
2022/12/31 09:32:51;;;;;;;5.35;1.20;;;;;;;13.91;100.00;100538.69;4962834;28;20033;-86
2022/12/31 09:35:46;;;;;;;3.15;1.15;;;;;;;13.89;100.00;100535.34;4962766;28;20030;-91
2022/12/31 09:38:20;;;;;;;4.45;1.17;;;;;;;13.84;100.00;100538.41;4960978;28;20085;-90
2022/12/31 09:41:23;;;;;;;3.65;1.00;;;;;;;13.84;100.00;100537.59;4969482;28;20058;-90
2022/12/31 09:44:16;;;;;;;5.20;1.10;;;;;;;13.89;100.00;100541.47;4985510;28;20030;-90
2022/12/31 09:47:21;;;;;;;5.97;1.30;;;;;;;13.93;100.00;100549.94;4978381;28;20298;-90
2022/12/31 09:50:07;;;;;;;4.65;1.30;;;;;;;13.97;100.00;100544.22;4964884;28;20118;-90
2022/12/31 09:52:57;;;;;;;4.32;1.10;;;;;;;14.02;100.00;100541.19;4965662;28;20038;-89
2022/12/31 09:55:47;;;;;;;4.70;1.13;;;;;;;14.07;100.00;100534.47;4979464;28;20031;-90
2022/12/31 09:58:33;;;;;;;3.55;1.02;;;;;;;14.11;100.00;100546.44;4964901;28;20094;-91
2022/12/31 10:01:36;;;;;;;3.03;0.93;;;;;;;14.17;100.00;100545.03;4965222;28;20105;-91
2022/12/31 10:04:11;;;;;;;3.65;1.20;;;;;;;14.22;100.00;100542.78;4965988;28;20023;-91
2022/12/31 10:07:14;;;;;;;5.78;1.30;;;;;;;14.27;100.00;100550.28;4967830;28;20053;-90
2022/12/31 10:09:54;;;;;;;8.13;1.58;;;;;;;14.29;100.00;100543.88;4963687;28;20101;-91
2022/12/31 10:12:19;;;;;;;4.97;1.20;;;;;;;14.33;100.00;100550.53;4964614;28;20046;-91
2022/12/31 10:15:03;;;;;;;4.05;1.10;;;;;;;14.38;100.00;100550.94;4983492;28;20026;-93
2022/12/31 10:17:55;;;;;;;6.90;1.50;;;;;;;14.40;100.00;100554.25;4986341;28;20027;-92
2022/12/31 10:20:36;;;;;;;6.57;1.73;;;;;;;14.45;100.00;100547.75;4969379;28;20027;-92
2022/12/31 10:23:26;;;;;;;6.55;1.55;;;;;;;14.47;100.00;100561.69;4969930;28;20031;-90
2022/12/31 10:26:09;;;;;;;6.05;1.63;;;;;;;14.46;100.00;100550.25;4954921;28;20432;-94
2022/12/31 10:28:55;;;;;;;6.47;1.10;;;;;;;14.49;100.00;100543.84;4966172;28;20038;-89
2022/12/31 10:31:53;;;;;;;6.95;1.50;;;;;;;14.47;100.00;100527.28;4967333;28;20051;-92
2022/12/31 10:34:38;;;;;;;7.25;1.27;;;;;;;14.54;100.00;100523.06;4977013;28;20053;-95
2022/12/31 10:37:15;;;;;;;6.20;1.20;;;;;;;14.56;100.00;100527.22;4970347;28;20137;-94
2022/12/31 10:39:54;;;;;;;5.43;1.60;;;;;;;14.59;100.00;100528.75;4999202;28;20019;-94
2022/12/31 10:42:38;;;;;;;6.95;1.60;;;;;;;14.63;100.00;100530.09;4990792;28;20149;-95
2022/12/31 10:45:31;;;;;;;4.50;1.42;;;;;;;14.66;100.00;100535.09;4990207;28;20039;-93
2022/12/31 10:48:21;;;;;;;4.88;1.30;;;;;;;14.70;100.00;100537.31;4976705;28;20046;-93
2022/12/31 10:51:14;;;;;;;4.22;1.40;;;;;;;14.72;100.00;100534.50;4994964;28;20053;-94
2022/12/31 10:53:51;;;;;;;5.45;1.40;;;;;;;14.74;100.00;100543.13;5008309;28;20038;-95
2022/12/31 10:56:38;;;;;;;17.30;7.00;;;;;;;14.75;100.00;100539.50;4987203;28;20027;-93
2022/12/31 10:59:32;;;;;;;5.65;1.65;;;;;;;14.80;100.00;100553.13;4997758;28;20042;-94
2022/12/31 11:02:00;;;;;;;;;;;;;;;14.87;100.00;100548.94;4991957;28;20098;-94
2022/12/31 11:04:37;;;;;;;6.72;1.67;;;;;;;14.87;100.00;100542.81;4960200;28;19915;-94
2022/12/31 11:07:42;;;;;;;6.88;1.73;;;;;;;14.93;100.00;100544.88;4977249;28;20096;-93
2022/12/31 11:10:26;;;;;;;7.75;1.45;;;;;;;14.96;100.00;100573.72;4955762;28;20299;-94
2022/12/31 11:13:06;;;;;;;5.60;1.50;;;;;;;14.98;100.00;100561.97;4989586;28;20039;-96
2022/12/31 11:16:03;;;;;;;5.97;1.50;;;;;;;14.96;100.00;100558.63;4974779;28;20497;-96
2022/12/31 11:18:28;;;;;;;7.63;1.45;;;;;;;15.00;100.00;100560.00;4985873;28;20033;-95
2022/12/31 11:20:59;;;;;;;6.32;1.90;;;;;;;15.04;99.66;100556.06;4977764;28;20030;-96
2022/12/31 11:23:33;;;;;;;6.03;1.77;;;;;;;15.09;100.00;100568.03;4967582;28;20034;-95
2022/12/31 11:26:21;;;;;;;7.93;1.88;;;;;;;15.11;99.31;100551.00;4956779;28;20102;-93
2022/12/31 11:29:22;;;;;;;7.18;1.65;;;;;;;15.19;99.35;100561.69;4953449;28;20396;-93
2022/12/31 11:31:59;;;;;;;5.75;1.50;;;;;;;15.17;97.85;100591.97;4950644;28;20081;-92
2022/12/31 11:34:24;;;;;;;8.20;1.70;;;;;;;15.16;97.92;100569.09;4970602;28;20035;-93
2022/12/31 11:37:27;;;;;;;6.75;1.85;;;;;;;15.17;98.85;100568.13;4972352;28;20094;-93
2022/12/31 11:40:35;;;;;;;9.18;2.10;;;;;;;15.16;99.69;100571.75;4973314;28;20030;-94
2022/12/31 11:43:19;;;;;;;6.93;1.60;;;;;;;15.14;98.41;100584.31;4968304;28;20041;-95
2022/12/31 11:46:03;;;;;;;4.07;1.35;;;;;;;15.12;98.00;100588.94;4971045;28;20126;-94
2022/12/31 11:49:06;;;;;;;7.22;1.80;;;;;;;15.14;99.33;100571.06;4970755;28;20034;-87
2022/12/31 11:51:43;;;;;;;;;;;;;;;15.15;100.00;100573.56;4955647;28;20174;-94
2022/12/31 11:54:36;;;;;;;7.60;1.83;;;;;;;15.01;100.00;100563.50;4987378;28;19929;-93
2022/12/31 11:57:25;;;;;;;5.70;1.88;;;;;;;14.95;100.00;100572.03;4964182;28;20054;-94
2022/12/31 11:59:59;;;;;;;8.52;2.17;;;;;;;14.88;100.00;100584.22;4957257;28;20054;-93
2022/12/31 12:02:34;;;;;;;5.28;2.08;;;;;;;14.88;100.00;100577.09;4954264;28;20078;-92
2022/12/31 12:05:05;;;;;;;8.23;1.63;;;;;;;14.89;99.51;100577.94;4983322;28;20042;-93
2022/12/31 12:07:31;;;;;;;7.30;1.75;;;;;;;14.87;100.00;100577.25;4967546;28;20042;-94
2022/12/31 12:10:00;;;;;;;5.28;1.52;;;;;;;14.85;100.00;100580.03;4962082;28;20396;-92
2022/12/31 12:12:37;;;;;;;6.10;1.60;;;;;;;14.84;100.00;100564.31;4958151;28;20119;-92
2022/12/31 12:15:09;;;;;;;6.95;1.88;;;;;;;14.80;100.00;100573.50;4959122;28;20024;-94
2022/12/31 12:17:35;;;;;;;9.13;1.58;;;;;;;14.80;100.00;100560.25;4966350;28;20045;-93